Time;durP1;ratioP1;P1;durP2;ratioP2;P2;SDS_P1;SDS_P2;PMS_P1;PMS_P2;Temp;Humidity;BMP_temperature;BMP_pressure;BME280_temperature;BME280_humidity;BME280_pressure;Samples;Min_cycle;Max_cycle;Signal;HPM_P1;HPM_P2
2023/03/21 00:00:47;;;;;;;14.48;7.70;;;13.00;67.20;;;;;;4972021;28;20392;-76
2023/03/21 00:03:14;;;;;;;14.88;8.40;;;13.00;67.10;;;;;;4978543;28;20922;-76
2023/03/21 00:05:41;;;;;;;16.33;8.40;;;13.00;66.90;;;;;;4982938;28;20291;-76
2023/03/21 00:08:07;;;;;;;14.93;8.63;;;12.90;67.70;;;;;;4984015;28;20184;-76
2023/03/21 00:10:32;;;;;;;14.10;8.60;;;12.80;67.50;;;;;;4978386;28;20640;-75
2023/03/21 00:12:58;;;;;;;13.60;7.85;;;12.80;67.20;;;;;;4980992;28;20181;-76
2023/03/21 00:15:26;;;;;;;11.23;7.18;;;12.70;67.30;;;;;;4976545;28;20174;-75
2023/03/21 00:18:02;;;;;;;13.32;7.80;;;12.70;67.00;;;;;;4977233;28;20192;-76
2023/03/21 00:20:33;;;;;;;13.35;6.93;;;12.60;67.30;;;;;;4976237;28;20213;-76
2023/03/21 00:23:00;;;;;;;12.70;7.32;;;12.50;67.50;;;;;;4975623;28;20687;-76
2023/03/21 00:25:27;;;;;;;19.42;7.35;;;12.50;67.60;;;;;;4974276;28;20651;-75
2023/03/21 00:27:52;;;;;;;12.10;5.97;;;12.40;68.00;;;;;;4981071;28;20276;-75
2023/03/21 00:30:18;;;;;;;11.88;6.55;;;12.30;68.20;;;;;;4977824;28;20274;-75
2023/03/21 00:32:45;;;;;;;10.02;6.32;;;12.30;68.30;;;;;;4980502;28;20189;-75
2023/03/21 00:35:11;;;;;;;8.80;6.38;;;12.30;68.40;;;;;;4978929;28;20178;-75
2023/03/21 00:37:37;;;;;;;6.97;6.25;;;12.20;68.40;;;;;;4977581;28;20200;-75
2023/03/21 00:40:08;;;;;;;7.30;6.05;;;12.20;68.80;;;;;;4976032;28;20221;-75
2023/03/21 00:42:35;;;;;;;10.13;6.05;;;12.10;69.00;;;;;;4978853;28;20181;-75
2023/03/21 00:45:01;;;;;;;8.80;5.70;;;12.10;69.20;;;;;;4981938;28;20194;-75
2023/03/21 00:47:27;;;;;;;12.52;6.18;;;12.00;69.50;;;;;;4982457;28;20210;-75
2023/03/21 00:49:52;;;;;;;7.00;5.22;;;12.00;69.60;;;;;;4975944;28;20225;-75
2023/03/21 00:52:18;;;;;;;9.05;5.47;;;11.90;70.00;;;;;;4975609;28;20273;-75
2023/03/21 00:54:44;;;;;;;12.02;5.70;;;11.80;70.20;;;;;;4979931;28;20186;-76
2023/03/21 00:57:10;;;;;;;8.20;5.65;;;11.80;70.30;;;;;;4977272;28;20185;-76
2023/03/21 00:59:35;;;;;;;7.25;5.63;;;11.70;70.40;;;;;;4977067;28;20659;-76
2023/03/21 01:02:06;;;;;;;10.75;6.72;;;11.70;70.60;;;;;;4979429;28;20190;-76
2023/03/21 01:04:35;;;;;;;9.27;5.75;;;11.70;70.70;;;;;;4982728;28;20200;-76
2023/03/21 01:07:01;;;;;;;9.43;6.57;;;11.70;70.70;;;;;;4978264;28;20192;-76
2023/03/21 01:09:27;;;;;;;7.88;5.93;;;11.60;70.80;;;;;;4977307;28;20865;-76
2023/03/21 01:11:53;;;;;;;9.80;6.32;;;11.60;70.70;;;;;;4980697;28;20194;-77
2023/03/21 01:14:21;;;;;;;8.00;5.93;;;11.60;71.00;;;;;;4982477;28;20638;-76
2023/03/21 01:16:47;;;;;;;8.60;6.10;;;11.50;71.00;;;;;;4978980;28;20189;-76
2023/03/21 01:19:15;;;;;;;8.98;6.22;;;11.50;71.10;;;;;;4976645;28;20222;-76
2023/03/21 01:21:42;;;;;;;6.78;5.32;;;11.50;71.40;;;;;;4978224;28;20182;-76
2023/03/21 01:24:08;;;;;;;9.07;6.00;;;11.40;71.40;;;;;;4975350;28;20269;-76
2023/03/21 01:26:36;;;;;;;7.85;4.72;;;11.40;71.50;;;;;;4978461;28;20213;-76
2023/03/21 01:29:02;;;;;;;9.13;5.03;;;11.40;71.00;;;;;;4971873;28;20186;-76
2023/03/21 01:31:28;;;;;;;8.68;5.60;;;11.40;71.30;;;;;;4971712;28;20189;-76
2023/03/21 01:33:54;;;;;;;7.97;5.45;;;11.40;71.10;;;;;;4976215;28;20580;-76
2023/03/21 01:36:23;;;;;;;9.25;5.55;;;11.40;71.10;;;;;;4973472;28;20192;-76
2023/03/21 01:38:49;;;;;;;7.55;5.50;;;11.40;71.20;;;;;;4979702;28;20202;-76
2023/03/21 01:41:24;;;;;;;5.03;4.57;;;11.40;71.20;;;;;;4977742;28;20189;-76
2023/03/21 01:43:51;;;;;;;8.88;5.68;;;11.40;70.40;;;;;;4982492;28;20177;-76
2023/03/21 01:46:36;;;;;;;5.03;4.53;;;11.40;70.60;;;;;;4976223;28;20194;-75
2023/03/21 01:49:07;;;;;;;6.68;5.40;;;11.40;71.00;;;;;;4976896;28;20596;-76
2023/03/21 01:51:38;;;;;;;5.93;4.65;;;11.40;71.10;;;;;;4979395;28;20185;-76
2023/03/21 01:54:05;;;;;;;5.45;4.97;;;11.30;71.50;;;;;;4979217;28;20663;-76
2023/03/21 01:56:37;;;;;;;6.15;4.90;;;11.30;72.10;;;;;;4978761;28;20192;-76
2023/03/21 01:59:23;;;;;;;5.97;4.60;;;11.10;73.00;;;;;;4981545;28;20348;-76
2023/03/21 02:01:50;;;;;;;5.65;5.00;;;11.00;72.10;;;;;;4978175;28;20194;-76
2023/03/21 02:04:21;;;;;;;6.72;4.75;;;11.00;72.40;;;;;;4975694;28;20189;-76
2023/03/21 02:07:01;;;;;;;6.05;4.28;;;11.00;72.60;;;;;;4979822;28;20181;-76
2023/03/21 02:09:32;;;;;;;6.18;5.10;;;11.00;72.50;;;;;;4978721;28;20177;-76
2023/03/21 02:11:58;;;;;;;14.27;9.43;;;10.90;73.80;;;;;;4973543;28;20280;-76
2023/03/21 02:14:24;;;;;;;15.63;10.13;;;10.80;73.00;;;;;;4980231;28;20186;-76
2023/03/21 02:17:25;;;;;;;14.25;8.70;;;10.80;72.80;;;;;;4977791;28;20196;-76
2023/03/21 02:20:21;;;;;;;7.57;5.25;;;10.80;73.20;;;;;;4962708;28;20312;-76
2023/03/21 02:23:06;;;;;;;7.82;5.47;;;10.80;72.90;;;;;;4964262;28;20191;-76
2023/03/21 02:25:52;;;;;;;5.15;4.60;;;10.70;72.90;;;;;;4963757;28;20186;-76
2023/03/21 02:28:36;;;;;;;12.57;5.80;;;10.70;73.10;;;;;;4960290;28;20191;-75
2023/03/21 02:31:12;;;;;;;4.53;4.15;;;10.70;72.50;;;;;;4960908;28;20191;-77
2023/03/21 02:34:15;;;;;;;5.90;3.60;;;10.70;72.20;;;;;;4962653;28;20213;-75
2023/03/21 02:36:46;;;;;;;4.28;3.15;;;10.60;72.30;;;;;;4942972;28;20205;-75
2023/03/21 02:39:27;;;;;;;5.35;3.90;;;10.60;72.70;;;;;;4943780;29;20234;-75
2023/03/21 02:42:05;;;;;;;4.30;3.83;;;10.50;73.00;;;;;;4943296;28;20222;-76
2023/03/21 02:44:33;;;;;;;4.40;3.97;;;10.40;73.10;;;;;;4947201;28;20218;-75
2023/03/21 02:47:06;;;;;;;3.85;3.60;;;10.40;73.60;;;;;;4949593;28;20698;-75
2023/03/21 02:49:40;;;;;;;6.20;4.53;;;10.40;73.60;;;;;;4946242;29;20222;-76
2023/03/21 02:52:08;;;;;;;4.30;3.90;;;10.30;73.60;;;;;;4944866;29;20185;-76
2023/03/21 02:54:35;;;;;;;5.03;3.30;;;10.30;74.00;;;;;;4946637;29;20590;-75
2023/03/21 02:57:03;;;;;;;4.60;4.10;;;10.30;74.10;;;;;;4928261;28;20290;-75
2023/03/21 02:59:30;;;;;;;4.40;4.00;;;10.20;74.10;;;;;;4921616;29;20234;-76
2023/03/21 03:01:58;;;;;;;4.13;3.75;;;10.30;74.10;;;;;;4921189;29;20242;-76
2023/03/21 03:04:27;;;;;;;3.97;3.57;;;10.30;74.20;;;;;;4921215;29;20668;-76
2023/03/21 03:07:06;;;;;;;7.07;4.28;;;10.20;74.30;;;;;;4914682;29;20208;-76
2023/03/21 03:09:51;;;;;;;6.38;4.72;;;10.20;74.40;;;;;;4922841;29;20204;-76
2023/03/21 03:12:50;;;;;;;4.55;4.18;;;10.20;74.40;;;;;;4925650;28;20239;-77
2023/03/21 03:15:40;;;;;;;5.32;4.03;;;10.20;74.60;;;;;;4911838;29;20227;-77
2023/03/21 03:18:13;;;;;;;7.67;4.47;;;10.20;74.90;;;;;;4927312;29;20363;-76
2023/03/21 03:20:54;;;;;;;4.57;4.10;;;10.20;74.70;;;;;;4927667;29;20199;-77
2023/03/21 03:23:34;;;;;;;4.50;4.10;;;10.20;74.80;;;;;;4927469;29;20760;-76
2023/03/21 03:26:11;;;;;;;5.38;4.75;;;10.20;75.10;;;;;;4924666;29;20374;-76
2023/03/21 03:28:42;;;;;;;4.03;3.60;;;10.20;75.20;;;;;;4926253;29;20271;-75
2023/03/21 03:31:13;;;;;;;5.70;3.80;;;10.20;75.00;;;;;;4910730;29;21374;-76
2023/03/21 03:33:43;;;;;;;6.07;4.53;;;10.10;75.10;;;;;;4926853;29;20295;-76
2023/03/21 03:36:11;;;;;;;4.80;4.13;;;10.10;74.90;;;;;;4927935;29;20226;-76
2023/03/21 03:38:38;;;;;;;3.47;3.22;;;10.00;74.20;;;;;;4925719;29;20259;-76
2023/03/21 03:41:18;;;;;;;8.07;3.17;;;10.00;73.90;;;;;;4926236;29;20195;-76
2023/03/21 03:43:53;;;;;;;2.95;2.65;;;10.00;73.90;;;;;;4925067;29;20214;-76
2023/03/21 03:46:27;;;;;;;4.30;3.03;;;9.90;74.20;;;;;;4923537;29;20691;-76
2023/03/21 03:49:04;;;;;;;3.20;3.00;;;9.80;75.40;;;;;;4927662;29;20239;-76
2023/03/21 03:51:42;;;;;;;6.40;3.00;;;9.60;75.20;;;;;;4935862;28;20301;-76
2023/03/21 03:54:13;;;;;;;2.87;2.70;;;9.50;75.20;;;;;;4980234;28;20208;-75
2023/03/21 03:56:39;;;;;;;2.47;2.27;;;9.50;74.90;;;;;;4972675;28;20256;-76
2023/03/21 03:59:06;;;;;;;2.60;2.40;;;9.40;75.30;;;;;;4979940;28;20191;-76
2023/03/21 04:01:33;;;;;;;5.67;3.33;;;9.40;76.20;;;;;;4981347;28;20273;-75
2023/03/21 04:03:59;;;;;;;3.10;2.87;;;9.30;76.00;;;;;;4979791;28;20879;-75
2023/03/21 04:06:27;;;;;;;2.93;2.40;;;9.30;76.30;;;;;;4979189;28;20169;-75
2023/03/21 04:08:55;;;;;;;2.57;2.37;;;9.20;76.40;;;;;;4978185;28;20224;-75
2023/03/21 04:11:21;;;;;;;4.03;2.33;;;9.10;77.00;;;;;;4978448;28;20178;-76
2023/03/21 04:13:47;;;;;;;5.73;3.40;;;9.10;76.90;;;;;;4978533;28;20264;-76
2023/03/21 04:16:13;;;;;;;2.90;2.67;;;9.10;76.90;;;;;;4980619;28;20208;-75
2023/03/21 04:18:40;;;;;;;2.80;2.60;;;9.10;77.00;;;;;;4978843;28;20244;-76
2023/03/21 04:21:12;;;;;;;3.53;2.80;;;9.10;77.00;;;;;;4980081;28;20175;-76
2023/03/21 04:23:39;;;;;;;2.17;1.93;;;9.10;76.70;;;;;;4981398;28;20186;-76
2023/03/21 04:26:05;;;;;;;2.93;2.73;;;9.20;76.80;;;;;;4975262;28;20698;-76
2023/03/21 04:28:32;;;;;;;5.70;2.67;;;9.20;76.70;;;;;;4978348;28;20181;-75
2023/03/21 04:30:58;;;;;;;2.87;2.67;;;9.20;76.70;;;;;;4982521;28;20182;-75
2023/03/21 04:33:24;;;;;;;4.47;3.10;;;9.30;76.80;;;;;;4981989;28;20209;-76
2023/03/21 04:35:55;;;;;;;3.60;3.27;;;9.30;76.80;;;;;;4982397;28;20181;-75
2023/03/21 04:38:29;;;;;;;3.47;2.93;;;9.30;76.80;;;;;;4978483;28;20189;-74
2023/03/21 04:40:55;;;;;;;3.40;3.10;;;9.30;76.80;;;;;;4975892;28;20185;-75
2023/03/21 04:43:22;;;;;;;3.30;3.10;;;9.30;76.90;;;;;;4975879;28;20992;-76
2023/03/21 04:45:48;;;;;;;2.73;2.63;;;9.30;77.00;;;;;;4979470;28;20197;-75
2023/03/21 04:48:16;;;;;;;3.90;3.00;;;9.30;77.20;;;;;;4975922;28;20190;-75
2023/03/21 04:50:43;;;;;;;4.03;3.03;;;9.30;77.20;;;;;;4980128;28;20253;-75
2023/03/21 04:53:09;;;;;;;3.73;2.40;;;9.30;76.80;;;;;;4981706;28;20296;-75
2023/03/21 04:55:35;;;;;;;2.70;2.27;;;9.30;76.80;;;;;;4978182;28;20213;-75
2023/03/21 04:58:02;;;;;;;2.53;2.40;;;9.30;76.30;;;;;;4978075;28;20189;-76
2023/03/21 05:00:28;;;;;;;2.73;2.53;;;9.30;76.30;;;;;;4972134;28;20578;-75
2023/03/21 05:02:54;;;;;;;4.23;2.60;;;9.30;76.60;;;;;;4978580;28;20233;-76
2023/03/21 05:05:19;;;;;;;3.03;2.53;;;9.30;76.50;;;;;;4982451;28;20185;-76
2023/03/21 05:07:45;;;;;;;3.57;2.50;;;9.30;76.40;;;;;;4979142;28;20228;-75
2023/03/21 05:10:11;;;;;;;3.23;2.93;;;9.30;76.90;;;;;;4976815;28;21064;-78
2023/03/21 05:12:37;;;;;;;2.97;2.67;;;9.30;76.90;;;;;;4977650;28;20189;-76
2023/03/21 05:15:04;;;;;;;2.63;2.43;;;9.30;76.80;;;;;;4980883;28;20184;-76
2023/03/21 05:17:30;;;;;;;4.10;2.33;;;9.30;76.90;;;;;;4977272;28;20277;-77
2023/03/21 05:19:55;;;;;;;2.90;2.33;;;9.30;76.90;;;;;;4977543;28;20272;-77
2023/03/21 05:22:23;;;;;;;2.80;2.50;;;9.40;76.90;;;;;;4979315;28;20182;-77
2023/03/21 05:24:49;;;;;;;3.00;2.63;;;9.40;76.60;;;;;;4977999;28;20682;-77
2023/03/21 05:27:33;;;;;;;4.47;2.67;;;9.50;75.80;;;;;;4976728;28;20186;-76
2023/03/21 05:30:00;;;;;;;2.30;2.17;;;9.50;75.40;;;;;;4972795;28;20217;-75
2023/03/21 05:32:26;;;;;;;4.90;2.90;;;9.60;75.70;;;;;;4976701;28;20186;-75
2023/03/21 05:34:52;;;;;;;2.93;2.73;;;9.60;76.10;;;;;;4976492;28;20225;-77
2023/03/21 05:37:17;;;;;;;4.57;2.50;;;9.60;76.20;;;;;;4973449;28;20759;-75
2023/03/21 05:39:43;;;;;;;6.80;3.07;;;9.70;76.10;;;;;;4975129;28;20741;-77
2023/03/21 05:42:08;;;;;;;2.67;2.47;;;9.70;76.10;;;;;;4975767;28;20664;-74
2023/03/21 05:44:34;;;;;;;2.67;2.10;;;9.80;75.60;;;;;;4976861;28;20194;-75
2023/03/21 05:47:00;;;;;;;3.43;3.10;;;9.80;75.30;;;;;;4973900;28;20192;-77
2023/03/21 05:49:26;;;;;;;3.03;2.70;;;9.90;76.10;;;;;;4980824;28;20213;-75
2023/03/21 05:51:52;;;;;;;6.53;3.00;;;9.90;75.20;;;;;;4979528;28;20261;-75
2023/03/21 05:54:18;;;;;;;5.00;3.07;;;10.00;74.90;;;;;;4970547;28;20186;-76
2023/03/21 05:56:44;;;;;;;5.20;3.03;;;10.00;74.50;;;;;;4977068;28;20299;-75
2023/03/21 05:59:10;;;;;;;2.97;2.60;;;10.00;74.90;;;;;;4978352;28;20707;-75
2023/03/21 06:01:35;;;;;;;2.90;2.70;;;10.10;74.40;;;;;;4972950;28;20205;-75
2023/03/21 06:04:01;;;;;;;2.90;2.10;;;10.20;74.40;;;;;;4978319;28;20576;-76
2023/03/21 06:06:26;;;;;;;3.43;3.07;;;10.30;74.30;;;;;;4975011;28;20197;-77
2023/03/21 06:08:52;;;;;;;2.83;2.70;;;10.30;74.40;;;;;;4973249;28;20197;-78
2023/03/21 06:11:26;;;;;;;3.17;2.83;;;10.40;74.10;;;;;;4977866;28;20185;-78
2023/03/21 06:13:51;;;;;;;5.03;3.37;;;10.50;73.70;;;;;;4974203;28;20186;-77
2023/03/21 06:16:17;;;;;;;5.23;2.87;;;10.70;73.70;;;;;;4974619;28;20204;-76
2023/03/21 06:18:42;;;;;;;4.15;3.75;;;10.80;73.40;;;;;;4976632;28;20186;-77
2023/03/21 06:21:08;;;;;;;5.13;3.97;;;10.90;73.20;;;;;;4979276;28;20189;-76
2023/03/21 06:23:35;;;;;;;5.00;4.30;;;11.00;73.00;;;;;;4978035;28;20255;-77
2023/03/21 06:26:01;;;;;;;4.65;2.92;;;11.20;72.70;;;;;;4977033;28;20177;-77
2023/03/21 06:28:26;;;;;;;4.75;3.33;;;11.30;72.40;;;;;;4977025;28;20568;-77
2023/03/21 06:30:52;;;;;;;6.47;3.40;;;11.50;72.30;;;;;;4975169;28;20221;-76
2023/03/21 06:33:18;;;;;;;3.10;2.88;;;11.70;72.20;;;;;;4976100;28;20189;-77
2023/03/21 06:35:43;;;;;;;6.00;4.57;;;11.80;72.00;;;;;;4976059;28;20193;-77
2023/03/21 06:38:10;;;;;;;5.60;4.00;;;12.00;72.00;;;;;;4974334;28;20182;-77
2023/03/21 06:40:37;;;;;;;10.20;3.40;;;12.20;71.80;;;;;;4980010;28;20198;-76
2023/03/21 06:43:03;;;;;;;3.78;2.97;;;12.30;72.00;;;;;;4977345;28;20182;-77
2023/03/21 06:45:29;;;;;;;7.45;3.67;;;12.50;72.50;;;;;;4976117;28;20201;-77
2023/03/21 06:47:54;;;;;;;10.38;3.50;;;12.70;72.40;;;;;;4976471;28;20189;-77
2023/03/21 06:50:20;;;;;;;4.15;3.83;;;12.80;72.40;;;;;;4977643;28;20217;-76
2023/03/21 06:52:46;;;;;;;4.18;3.83;;;13.00;72.00;;;;;;4978879;28;20182;-75
2023/03/21 06:55:11;;;;;;;5.72;3.92;;;13.10;71.80;;;;;;4973232;28;20546;-76
2023/03/21 06:57:37;;;;;;;4.72;2.85;;;13.30;70.90;;;;;;4975735;28;20679;-75
2023/03/21 07:00:04;;;;;;;3.20;2.95;;;13.50;69.70;;;;;;4976386;28;21062;-76
2023/03/21 07:02:30;;;;;;;3.55;3.35;;;13.60;68.20;;;;;;4973567;28;20178;-76
2023/03/21 07:04:56;;;;;;;3.88;3.50;;;13.80;67.30;;;;;;4974513;28;20205;-76
2023/03/21 07:07:25;;;;;;;3.78;3.45;;;13.90;67.20;;;;;;4977375;28;20197;-76
2023/03/21 07:09:51;;;;;;;4.05;3.67;;;14.10;66.90;;;;;;4973899;28;20225;-76
2023/03/21 07:12:17;;;;;;;3.78;3.58;;;14.30;66.50;;;;;;4978923;28;20182;-76
2023/03/21 07:14:42;;;;;;;4.07;3.80;;;14.50;65.60;;;;;;4975478;28;20194;-75
2023/03/21 07:17:08;;;;;;;7.10;3.90;;;14.70;65.30;;;;;;4979466;28;20196;-76
2023/03/21 07:19:34;;;;;;;4.55;4.15;;;14.80;65.00;;;;;;4978145;28;20189;-77
2023/03/21 07:22:00;;;;;;;9.20;5.47;;;14.90;64.30;;;;;;4971368;28;20193;-76
2023/03/21 07:24:26;;;;;;;10.52;5.10;;;15.00;64.50;;;;;;4970899;28;20186;-76
2023/03/21 07:26:52;;;;;;;7.05;5.75;;;15.10;64.20;;;;;;4974396;28;20197;-78
2023/03/21 07:29:20;;;;;;;5.65;5.18;;;15.20;64.10;;;;;;4978182;28;20212;-77
2023/03/21 07:31:46;;;;;;;6.78;5.05;;;15.20;64.10;;;;;;4977324;28;20189;-74
2023/03/21 07:34:11;;;;;;;7.18;4.85;;;15.30;64.10;;;;;;4976630;28;20183;-74
2023/03/21 07:36:37;;;;;;;9.00;6.03;;;15.40;63.80;;;;;;4981172;28;20196;-74
2023/03/21 07:39:03;;;;;;;6.78;6.13;;;15.50;63.40;;;;;;4978991;28;20189;-74
2023/03/21 07:41:29;;;;;;;12.38;6.32;;;15.50;63.10;;;;;;4983389;28;20193;-77
2023/03/21 07:43:56;;;;;;;9.13;6.53;;;15.50;63.20;;;;;;4977221;28;20200;-78
2023/03/21 07:46:22;;;;;;;8.38;7.38;;;15.60;63.40;;;;;;4975421;28;20289;-75
2023/03/21 07:48:47;;;;;;;13.27;6.97;;;15.60;63.60;;;;;;4980221;28;20788;-76
2023/03/21 07:51:13;;;;;;;11.00;7.20;;;15.70;63.50;;;;;;4978162;28;20273;-73
2023/03/21 07:53:47;;;;;;;12.70;6.88;;;15.80;63.10;;;;;;4978703;28;20673;-74
2023/03/21 07:56:13;;;;;;;10.38;6.38;;;15.90;62.50;;;;;;4965039;28;20201;-72
2023/03/21 07:58:38;;;;;;;11.45;6.90;;;16.00;62.30;;;;;;4975772;28;20194;-72
2023/03/21 08:01:04;;;;;;;8.68;6.25;;;16.10;61.80;;;;;;4977281;28;20674;-72
2023/03/21 08:03:32;;;;;;;7.25;5.50;;;16.20;61.50;;;;;;4975763;28;20182;-73
2023/03/21 08:06:00;;;;;;;8.15;5.30;;;16.30;61.30;;;;;;4983559;28;20639;-73
2023/03/21 08:08:26;;;;;;;5.65;5.10;;;16.10;60.30;;;;;;4979947;28;20213;-74
2023/03/21 08:10:52;;;;;;;12.38;5.50;;;16.10;60.60;;;;;;4985043;28;20214;-72
2023/03/21 08:13:17;;;;;;;5.50;5.00;;;16.10;60.50;;;;;;4984407;28;20193;-74
2023/03/21 08:15:43;;;;;;;5.22;4.70;;;16.10;60.80;;;;;;4978003;28;20194;-72
2023/03/21 08:18:10;;;;;;;8.05;5.38;;;16.20;60.60;;;;;;4979616;28;20264;-72
2023/03/21 08:20:36;;;;;;;6.20;5.35;;;16.20;60.60;;;;;;4978014;28;20712;-72
2023/03/21 08:23:02;;;;;;;6.40;5.10;;;16.30;60.30;;;;;;4979867;28;20663;-72
2023/03/21 08:25:27;;;;;;;7.38;4.88;;;16.30;60.20;;;;;;4971583;28;20236;-72
2023/03/21 08:27:53;;;;;;;5.13;4.70;;;16.30;59.90;;;;;;4982546;28;20643;-73
2023/03/21 08:30:22;;;;;;;4.80;4.40;;;16.30;60.20;;;;;;4979933;28;20549;-72
2023/03/21 08:32:49;;;;;;;5.47;4.88;;;16.40;60.50;;;;;;4981440;28;20185;-73
2023/03/21 08:35:17;;;;;;;5.05;4.55;;;16.50;60.60;;;;;;4981114;28;20186;-72
2023/03/21 08:37:44;;;;;;;6.20;4.65;;;16.70;60.30;;;;;;4979919;28;20758;-72
2023/03/21 08:40:14;;;;;;;5.43;4.97;;;16.80;59.80;;;;;;4979169;28;20194;-72
2023/03/21 08:42:40;;;;;;;8.80;5.25;;;17.00;59.30;;;;;;4979227;28;20246;-73
2023/03/21 08:45:07;;;;;;;5.10;4.65;;;17.10;58.80;;;;;;4978911;28;20225;-73
2023/03/21 08:47:33;;;;;;;5.80;5.20;;;17.20;58.40;;;;;;4980124;28;20221;-73
2023/03/21 08:49:59;;;;;;;6.85;5.10;;;17.20;58.00;;;;;;4979386;28;20229;-73
2023/03/21 08:52:26;;;;;;;5.35;4.78;;;17.20;58.30;;;;;;4981305;28;20625;-73
2023/03/21 08:54:52;;;;;;;7.15;5.07;;;17.20;58.60;;;;;;4977329;28;20189;-73
2023/03/21 08:57:17;;;;;;;5.85;5.25;;;17.20;58.70;;;;;;4978390;28;20296;-73
2023/03/21 08:59:43;;;;;;;10.57;5.65;;;17.30;58.80;;;;;;4979381;28;20280;-73
2023/03/21 09:02:14;;;;;;;5.45;4.85;;;17.40;59.10;;;;;;4976226;28;20189;-73
2023/03/21 09:04:40;;;;;;;5.75;4.90;;;17.50;58.50;;;;;;4972548;28;20597;-73
2023/03/21 09:07:06;;;;;;;6.03;5.07;;;17.70;58.00;;;;;;4975620;28;20234;-73
2023/03/21 09:09:31;;;;;;;6.82;4.93;;;17.80;58.10;;;;;;4975826;28;20210;-73
2023/03/21 09:11:57;;;;;;;6.82;4.85;;;17.80;57.50;;;;;;4977666;28;20190;-73
2023/03/21 09:14:23;;;;;;;11.70;5.10;;;17.90;57.40;;;;;;4974355;28;20214;-73
2023/03/21 09:16:49;;;;;;;8.23;4.78;;;17.90;57.20;;;;;;4977149;28;20217;-73
2023/03/21 09:19:16;;;;;;;8.13;5.03;;;17.90;57.40;;;;;;4976392;28;20190;-73
2023/03/21 09:21:43;;;;;;;5.10;4.63;;;17.90;57.20;;;;;;4978425;28;20186;-73
2023/03/21 09:24:11;;;;;;;6.32;4.75;;;17.90;56.80;;;;;;4977144;28;20189;-73
2023/03/21 09:26:37;;;;;;;4.68;4.28;;;17.90;56.80;;;;;;4973060;28;21002;-73
2023/03/21 09:29:04;;;;;;;8.00;4.78;;;17.90;56.60;;;;;;4978069;28;20268;-73
2023/03/21 09:31:30;;;;;;;4.38;3.97;;;17.90;56.70;;;;;;4976803;28;20303;-73
2023/03/21 09:33:57;;;;;;;7.03;5.13;;;18.00;56.90;;;;;;4981768;28;20295;-73
2023/03/21 09:36:25;;;;;;;5.60;5.10;;;18.00;56.80;;;;;;4980571;28;20609;-73
2023/03/21 09:38:51;;;;;;;5.20;4.70;;;18.00;57.10;;;;;;4979393;28;20192;-73
2023/03/21 09:41:26;;;;;;;10.43;5.18;;;18.00;57.00;;;;;;4976301;28;20653;-72
2023/03/21 09:44:20;;;;;;;5.28;4.78;;;18.00;57.00;;;;;;4979198;28;20192;-73
2023/03/21 09:47:04;;;;;;;6.97;4.70;;;17.90;57.00;;;;;;4976453;28;20251;-73
2023/03/21 09:49:57;;;;;;;4.95;4.25;;;17.90;57.00;;;;;;4976085;28;20320;-74
2023/03/21 09:52:28;;;;;;;7.47;4.72;;;18.00;57.20;;;;;;4975696;28;20182;-74
2023/03/21 09:54:55;;;;;;;4.85;4.38;;;18.10;56.90;;;;;;4981491;28;20181;-73
2023/03/21 09:57:41;;;;;;;4.82;4.53;;;18.20;56.80;;;;;;4980499;28;20182;-73
2023/03/21 10:00:19;;;;;;;5.60;4.28;;;18.30;56.10;;;;;;4976862;28;20196;-74
2023/03/21 10:02:52;;;;;;;5.13;4.63;;;18.40;56.00;;;;;;4973815;28;20178;-74
2023/03/21 10:05:24;;;;;;;10.00;4.93;;;18.50;55.50;;;;;;4974194;28;20198;-74
2023/03/21 10:07:53;;;;;;;5.97;4.72;;;18.60;55.40;;;;;;4974168;28;20182;-73
2023/03/21 10:10:28;;;;;;;8.75;5.30;;;18.70;55.60;;;;;;4975209;28;20218;-74
2023/03/21 10:12:55;;;;;;;6.63;5.35;;;18.80;55.40;;;;;;4977016;28;20184;-74
2023/03/21 10:15:24;;;;;;;6.72;5.75;;;19.00;55.20;;;;;;4976015;28;20192;-73
2023/03/21 10:17:57;;;;;;;6.28;5.63;;;19.30;55.10;;;;;;4971997;28;20294;-73
2023/03/21 10:20:25;;;;;;;17.50;5.72;;;19.80;55.10;;;;;;4976995;28;20193;-73
2023/03/21 10:22:55;;;;;;;10.20;5.78;;;20.50;54.80;;;;;;4979825;28;20239;-74
2023/03/21 10:25:41;;;;;;;9.88;6.10;;;21.40;53.50;;;;;;4979277;28;20328;-73
2023/03/21 10:28:13;;;;;;;6.55;5.90;;;22.40;52.60;;;;;;4972705;28;20186;-73
2023/03/21 10:30:45;;;;;;;7.35;5.70;;;23.10;50.80;;;;;;4973753;28;20222;-73
2023/03/21 10:33:15;;;;;;;6.55;5.47;;;23.50;50.30;;;;;;4974274;28;20201;-74
2023/03/21 10:35:45;;;;;;;10.57;5.82;;;23.80;49.10;;;;;;4980777;28;20343;-73
2023/03/21 10:38:17;;;;;;;7.93;6.32;;;24.30;48.40;;;;;;4977063;28;20196;-74
2023/03/21 10:40:42;;;;;;;10.13;6.28;;;24.70;48.50;;;;;;4978379;28;20197;-73
2023/03/21 10:43:16;;;;;;;9.15;5.68;;;25.00;48.20;;;;;;4977845;28;20177;-73
2023/03/21 10:45:45;;;;;;;8.43;5.18;;;25.30;47.70;;;;;;4975642;28;20198;-73
2023/03/21 10:48:11;;;;;;;6.07;4.82;;;25.50;46.90;;;;;;4974089;28;20190;-74
2023/03/21 10:50:36;;;;;;;5.30;4.80;;;25.70;46.80;;;;;;4974248;28;20619;-74
2023/03/21 10:53:02;;;;;;;5.93;5.35;;;25.90;46.40;;;;;;4977346;28;20252;-74
2023/03/21 10:55:33;;;;;;;5.25;4.78;;;25.90;45.90;;;;;;4975753;28;20209;-74
2023/03/21 10:58:07;;;;;;;10.15;5.82;;;25.90;47.00;;;;;;4974324;28;20664;-74
2023/03/21 11:00:40;;;;;;;6.40;5.10;;;25.80;46.90;;;;;;4976222;28;20264;-74
2023/03/21 11:03:38;;;;;;;5.68;4.95;;;25.60;46.30;;;;;;4975903;28;20183;-73
2023/03/21 11:06:32;;;;;;;6.25;5.28;;;25.50;46.30;;;;;;4978460;28;20189;-73
2023/03/21 11:09:08;;;;;;;8.05;4.70;;;25.40;46.80;;;;;;4981901;28;20657;-73
2023/03/21 11:11:39;;;;;;;7.03;4.95;;;25.30;47.00;;;;;;4979934;28;20194;-73
2023/03/21 11:14:18;;;;;;;6.50;5.25;;;25.30;47.10;;;;;;4981031;28;20293;-73
2023/03/21 11:16:44;;;;;;;7.97;5.07;;;25.40;47.10;;;;;;4981453;28;20214;-73
2023/03/21 11:19:16;;;;;;;4.55;4.03;;;25.50;46.70;;;;;;4986664;28;20694;-73
2023/03/21 11:21:43;;;;;;;4.22;3.90;;;25.70;46.70;;;;;;4983996;28;20186;-73
2023/03/21 11:24:18;;;;;;;3.95;3.70;;;26.00;46.60;;;;;;4976506;28;20190;-73
2023/03/21 11:26:46;;;;;;;3.58;3.38;;;26.30;46.20;;;;;;4977892;28;20268;-73
2023/03/21 11:29:44;;;;;;;4.07;3.45;;;26.50;46.20;;;;;;4970457;28;21559;-74
2023/03/21 11:32:10;;;;;;;3.10;2.97;;;26.70;45.60;;;;;;4982387;28;20205;-73
2023/03/21 11:34:52;;;;;;;3.33;3.13;;;27.00;45.40;;;;;;4986629;28;20187;-74
2023/03/21 11:37:26;;;;;;;4.60;3.33;;;27.30;44.50;;;;;;4981156;28;20630;-74
2023/03/21 11:40:05;;;;;;;3.25;2.85;;;27.50;44.40;;;;;;4984135;28;20563;-74
2023/03/21 11:42:40;;;;;;;2.90;2.70;;;27.50;45.00;;;;;;4981372;28;20189;-74
2023/03/21 11:45:20;;;;;;;3.13;2.90;;;27.30;44.10;;;;;;4983150;28;20193;-73
2023/03/21 11:47:49;;;;;;;5.70;2.92;;;27.10;44.30;;;;;;4987733;28;20205;-74
2023/03/21 11:50:27;;;;;;;3.20;2.95;;;26.80;44.90;;;;;;4982040;28;20209;-73
2023/03/21 11:53:10;;;;;;;2.45;2.35;;;26.60;45.20;;;;;;4984719;28;20201;-74
2023/03/21 11:56:01;;;;;;;2.58;2.47;;;26.20;44.80;;;;;;4985512;28;20190;-74
2023/03/21 11:58:44;;;;;;;6.10;2.75;;;25.80;45.40;;;;;;4982109;28;20270;-73
2023/03/21 12:01:18;;;;;;;2.58;2.13;;;25.60;46.00;;;;;;4984125;28;20214;-74
2023/03/21 12:03:46;;;;;;;2.70;2.50;;;25.50;45.80;;;;;;4977189;28;20185;-74
2023/03/21 12:06:25;;;;;;;3.00;2.80;;;25.40;45.40;;;;;;4983523;28;20644;-74
2023/03/21 12:09:08;;;;;;;5.07;2.85;;;25.20;45.40;;;;;;4984863;28;20280;-73
2023/03/21 12:11:51;;;;;;;2.55;2.38;;;25.10;46.10;;;;;;4978180;28;20196;-73
2023/03/21 12:14:19;;;;;;;2.65;2.53;;;25.00;46.20;;;;;;4982264;28;20182;-73
2023/03/21 12:17:11;;;;;;;3.25;2.95;;;24.70;46.80;;;;;;4979862;28;20197;-73
2023/03/21 12:20:00;;;;;;;3.53;2.50;;;24.50;46.80;;;;;;4983015;28;20303;-73
2023/03/21 12:23:04;;;;;;;1.85;1.80;;;24.30;46.40;;;;;;4981287;28;20186;-73
2023/03/21 12:25:38;;;;;;;3.95;2.47;;;24.10;46.70;;;;;;4979654;28;20233;-74
2023/03/21 12:28:20;;;;;;;2.35;2.25;;;24.00;47.00;;;;;;4984480;28;20177;-76
2023/03/21 12:30:58;;;;;;;2.85;2.60;;;23.80;46.80;;;;;;4978719;28;20579;-76
2023/03/21 12:33:30;;;;;;;2.38;2.28;;;23.60;47.20;;;;;;4978489;28;20197;-75
2023/03/21 12:35:59;;;;;;;2.55;2.40;;;23.40;47.60;;;;;;4981803;28;20187;-75
2023/03/21 12:38:46;;;;;;;2.72;2.33;;;23.20;47.90;;;;;;4978970;28;20272;-75
2023/03/21 12:41:22;;;;;;;3.60;2.30;;;23.10;48.00;;;;;;4982547;28;20579;-75
2023/03/21 12:44:03;;;;;;;2.67;2.47;;;23.10;47.80;;;;;;4981112;28;20732;-75
2023/03/21 12:46:46;;;;;;;2.85;2.60;;;23.00;47.80;;;;;;4979823;28;20204;-75
2023/03/21 12:49:14;;;;;;;2.28;2.17;;;22.90;47.60;;;;;;4981290;28;20563;-75
2023/03/21 12:51:45;;;;;;;2.50;2.30;;;22.80;47.80;;;;;;4980687;28;20181;-75
2023/03/21 12:54:32;;;;;;;2.47;2.22;;;22.70;48.00;;;;;;4984753;28;20572;-75
2023/03/21 12:57:11;;;;;;;2.72;2.53;;;22.60;48.30;;;;;;4978334;28;20731;-75
2023/03/21 12:59:42;;;;;;;2.08;1.98;;;22.50;48.60;;;;;;4980397;28;20268;-75
2023/03/21 13:02:14;;;;;;;2.15;2.05;;;22.50;48.30;;;;;;4984952;28;20252;-75
2023/03/21 13:04:59;;;;;;;2.35;2.00;;;22.40;48.40;;;;;;4979405;28;20293;-74